sensor_id;sensor_type;location;lat;lon;timestamp;P1;durP1;ratioP1;P2;durP2;ratioP2
20318;SDS011;10317;47.254;11.314;2023-03-01T00:02:22;35.45;;;21.55;;
20318;SDS011;10317;47.254;11.314;2023-03-01T00:04:50;33.03;;;20.55;;
20318;SDS011;10317;47.254;11.314;2023-03-01T00:07:16;33.05;;;20.75;;
20318;SDS011;10317;47.254;11.314;2023-03-01T00:09:42;32.95;;;21.88;;
20318;SDS011;10317;47.254;11.314;2023-03-01T00:12:10;33.90;;;20.15;;
20318;SDS011;10317;47.254;11.314;2023-03-01T00:14:36;31.60;;;20.80;;
20318;SDS011;10317;47.254;11.314;2023-03-01T00:17:02;32.35;;;20.17;;
20318;SDS011;10317;47.254;11.314;2023-03-01T00:19:28;34.03;;;20.00;;
20318;SDS011;10317;47.254;11.314;2023-03-01T00:21:53;31.80;;;19.63;;
20318;SDS011;10317;47.254;11.314;2023-03-01T00:24:19;33.88;;;20.05;;
20318;SDS011;10317;47.254;11.314;2023-03-01T00:26:45;32.22;;;20.83;;
20318;SDS011;10317;47.254;11.314;2023-03-01T00:29:11;35.00;;;20.98;;
20318;SDS011;10317;47.254;11.314;2023-03-01T00:31:37;33.83;;;19.95;;
20318;SDS011;10317;47.254;11.314;2023-03-01T00:34:03;31.48;;;19.58;;
20318;SDS011;10317;47.254;11.314;2023-03-01T00:36:30;33.65;;;20.25;;
20318;SDS011;10317;47.254;11.314;2023-03-01T00:38:58;34.75;;;20.75;;
20318;SDS011;10317;47.254;11.314;2023-03-01T00:41:24;32.08;;;20.73;;
20318;SDS011;10317;47.254;11.314;2023-03-01T00:43:53;36.65;;;21.15;;
20318;SDS011;10317;47.254;11.314;2023-03-01T00:46:20;36.85;;;20.85;;
20318;SDS011;10317;47.254;11.314;2023-03-01T00:48:47;34.22;;;20.10;;
20318;SDS011;10317;47.254;11.314;2023-03-01T00:51:14;32.65;;;21.50;;
20318;SDS011;10317;47.254;11.314;2023-03-01T00:53:44;35.30;;;21.15;;
20318;SDS011;10317;47.254;11.314;2023-03-01T00:56:11;32.72;;;21.30;;
20318;SDS011;10317;47.254;11.314;2023-03-01T00:58:38;32.83;;;21.02;;
20318;SDS011;10317;47.254;11.314;2023-03-01T01:01:12;33.47;;;20.20;;
20318;SDS011;10317;47.254;11.314;2023-03-01T01:03:45;30.92;;;19.88;;
20318;SDS011;10317;47.254;11.314;2023-03-01T01:06:15;32.67;;;20.23;;
20318;SDS011;10317;47.254;11.314;2023-03-01T01:08:46;33.55;;;20.55;;
20318;SDS011;10317;47.254;11.314;2023-03-01T01:11:12;33.67;;;21.20;;
20318;SDS011;10317;47.254;11.314;2023-03-01T01:13:39;36.13;;;22.58;;
20318;SDS011;10317;47.254;11.314;2023-03-01T01:16:05;33.55;;;22.27;;
20318;SDS011;10317;47.254;11.314;2023-03-01T01:18:31;37.05;;;22.23;;
20318;SDS011;10317;47.254;11.314;2023-03-01T01:20:57;34.58;;;22.13;;
20318;SDS011;10317;47.254;11.314;2023-03-01T01:23:23;36.45;;;22.33;;
20318;SDS011;10317;47.254;11.314;2023-03-01T01:25:48;37.75;;;23.40;;
20318;SDS011;10317;47.254;11.314;2023-03-01T01:28:14;36.05;;;21.35;;
20318;SDS011;10317;47.254;11.314;2023-03-01T01:30:40;38.53;;;21.58;;
20318;SDS011;10317;47.254;11.314;2023-03-01T01:33:05;33.83;;;20.10;;
20318;SDS011;10317;47.254;11.314;2023-03-01T01:35:31;34.63;;;21.27;;
20318;SDS011;10317;47.254;11.314;2023-03-01T01:37:57;36.45;;;21.33;;
20318;SDS011;10317;47.254;11.314;2023-03-01T01:40:22;37.20;;;22.58;;
20318;SDS011;10317;47.254;11.314;2023-03-01T01:42:48;33.78;;;21.70;;
20318;SDS011;10317;47.254;11.314;2023-03-01T01:45:31;33.00;;;21.27;;
20318;SDS011;10317;47.254;11.314;2023-03-01T01:48:03;32.85;;;21.60;;
20318;SDS011;10317;47.254;11.314;2023-03-01T01:50:35;37.47;;;22.33;;
20318;SDS011;10317;47.254;11.314;2023-03-01T01:53:12;33.58;;;22.23;;
20318;SDS011;10317;47.254;11.314;2023-03-01T01:55:48;39.50;;;23.38;;
20318;SDS011;10317;47.254;11.314;2023-03-01T01:58:22;34.38;;;21.25;;
20318;SDS011;10317;47.254;11.314;2023-03-01T02:00:49;38.20;;;21.65;;
20318;SDS011;10317;47.254;11.314;2023-03-01T02:03:17;35.92;;;22.33;;
20318;SDS011;10317;47.254;11.314;2023-03-01T02:05:52;31.63;;;20.33;;
20318;SDS011;10317;47.254;11.314;2023-03-01T02:08:27;35.80;;;21.23;;
20318;SDS011;10317;47.254;11.314;2023-03-01T02:10:55;36.47;;;21.73;;
20318;SDS011;10317;47.254;11.314;2023-03-01T02:13:22;34.90;;;21.77;;
20318;SDS011;10317;47.254;11.314;2023-03-01T02:15:48;36.33;;;20.95;;
20318;SDS011;10317;47.254;11.314;2023-03-01T02:18:15;39.63;;;21.30;;
20318;SDS011;10317;47.254;11.314;2023-03-01T02:23:14;34.38;;;21.45;;
20318;SDS011;10317;47.254;11.314;2023-03-01T02:25:46;38.88;;;22.92;;
20318;SDS011;10317;47.254;11.314;2023-03-01T02:28:30;38.65;;;24.55;;
20318;SDS011;10317;47.254;11.314;2023-03-01T02:30:57;38.35;;;22.55;;
20318;SDS011;10317;47.254;11.314;2023-03-01T02:33:41;37.45;;;22.00;;
20318;SDS011;10317;47.254;11.314;2023-03-01T02:36:10;37.03;;;21.98;;
20318;SDS011;10317;47.254;11.314;2023-03-01T02:38:39;32.63;;;20.92;;
20318;SDS011;10317;47.254;11.314;2023-03-01T02:41:06;36.72;;;23.55;;
20318;SDS011;10317;47.254;11.314;2023-03-01T02:43:35;36.67;;;21.80;;
20318;SDS011;10317;47.254;11.314;2023-03-01T02:46:03;37.42;;;21.90;;
20318;SDS011;10317;47.254;11.314;2023-03-01T02:48:44;39.33;;;24.33;;
20318;SDS011;10317;47.254;11.314;2023-03-01T02:56:09;36.67;;;22.92;;
20318;SDS011;10317;47.254;11.314;2023-03-01T02:58:38;37.30;;;21.05;;
20318;SDS011;10317;47.254;11.314;2023-03-01T03:01:10;39.10;;;22.38;;
20318;SDS011;10317;47.254;11.314;2023-03-01T03:03:38;39.30;;;23.08;;
20318;SDS011;10317;47.254;11.314;2023-03-01T03:06:04;37.95;;;22.92;;
20318;SDS011;10317;47.254;11.314;2023-03-01T03:08:29;37.10;;;24.13;;
20318;SDS011;10317;47.254;11.314;2023-03-01T03:10:55;39.72;;;24.67;;
20318;SDS011;10317;47.254;11.314;2023-03-01T03:13:21;36.92;;;23.17;;
20318;SDS011;10317;47.254;11.314;2023-03-01T03:15:47;39.03;;;23.20;;
20318;SDS011;10317;47.254;11.314;2023-03-01T03:18:14;34.38;;;21.30;;
20318;SDS011;10317;47.254;11.314;2023-03-01T03:20:41;35.05;;;22.25;;
20318;SDS011;10317;47.254;11.314;2023-03-01T03:23:08;36.78;;;21.92;;
20318;SDS011;10317;47.254;11.314;2023-03-01T03:25:34;34.35;;;21.67;;
20318;SDS011;10317;47.254;11.314;2023-03-01T03:28:02;35.40;;;22.20;;
20318;SDS011;10317;47.254;11.314;2023-03-01T03:30:34;35.97;;;22.33;;
20318;SDS011;10317;47.254;11.314;2023-03-01T03:33:04;37.13;;;23.15;;
20318;SDS011;10317;47.254;11.314;2023-03-01T03:35:31;40.10;;;23.63;;
20318;SDS011;10317;47.254;11.314;2023-03-01T03:38:00;36.08;;;22.58;;
20318;SDS011;10317;47.254;11.314;2023-03-01T03:40:40;37.35;;;22.27;;
20318;SDS011;10317;47.254;11.314;2023-03-01T03:43:20;36.42;;;22.65;;
20318;SDS011;10317;47.254;11.314;2023-03-01T03:45:48;37.13;;;24.20;;
20318;SDS011;10317;47.254;11.314;2023-03-01T03:48:15;36.97;;;22.90;;
20318;SDS011;10317;47.254;11.314;2023-03-01T03:50:46;32.28;;;20.30;;
20318;SDS011;10317;47.254;11.314;2023-03-01T03:53:13;37.95;;;21.85;;
20318;SDS011;10317;47.254;11.314;2023-03-01T03:55:39;38.28;;;22.17;;
20318;SDS011;10317;47.254;11.314;2023-03-01T03:58:09;40.38;;;23.70;;
20318;SDS011;10317;47.254;11.314;2023-03-01T04:00:39;34.38;;;22.70;;
20318;SDS011;10317;47.254;11.314;2023-03-01T04:03:07;38.58;;;24.02;;
20318;SDS011;10317;47.254;11.314;2023-03-01T04:05:33;35.95;;;22.00;;
20318;SDS011;10317;47.254;11.314;2023-03-01T04:08:00;39.15;;;23.42;;
20318;SDS011;10317;47.254;11.314;2023-03-01T04:10:29;37.63;;;23.52;;
20318;SDS011;10317;47.254;11.314;2023-03-01T04:12:56;42.53;;;25.35;;
20318;SDS011;10317;47.254;11.314;2023-03-01T04:15:22;42.05;;;24.92;;
20318;SDS011;10317;47.254;11.314;2023-03-01T04:17:49;41.10;;;25.00;;
20318;SDS011;10317;47.254;11.314;2023-03-01T04:20:24;44.00;;;25.83;;
20318;SDS011;10317;47.254;11.314;2023-03-01T04:23:05;38.35;;;23.80;;
20318;SDS011;10317;47.254;11.314;2023-03-01T04:25:45;39.85;;;24.25;;
20318;SDS011;10317;47.254;11.314;2023-03-01T04:28:28;37.45;;;24.17;;
20318;SDS011;10317;47.254;11.314;2023-03-01T04:31:02;40.60;;;23.52;;
20318;SDS011;10317;47.254;11.314;2023-03-01T04:33:42;40.40;;;24.77;;
20318;SDS011;10317;47.254;11.314;2023-03-01T04:36:10;41.45;;;24.35;;
20318;SDS011;10317;47.254;11.314;2023-03-01T04:38:36;41.17;;;24.23;;
20318;SDS011;10317;47.254;11.314;2023-03-01T04:41:07;39.25;;;23.48;;
20318;SDS011;10317;47.254;11.314;2023-03-01T04:43:34;37.55;;;24.25;;
20318;SDS011;10317;47.254;11.314;2023-03-01T04:46:01;47.35;;;26.88;;
20318;SDS011;10317;47.254;11.314;2023-03-01T04:48:32;41.90;;;25.92;;
20318;SDS011;10317;47.254;11.314;2023-03-01T04:50:58;39.53;;;24.92;;
20318;SDS011;10317;47.254;11.314;2023-03-01T04:53:25;40.28;;;25.13;;
20318;SDS011;10317;47.254;11.314;2023-03-01T04:55:51;39.10;;;23.10;;
20318;SDS011;10317;47.254;11.314;2023-03-01T04:58:17;38.97;;;23.17;;
20318;SDS011;10317;47.254;11.314;2023-03-01T05:00:42;42.38;;;24.52;;
20318;SDS011;10317;47.254;11.314;2023-03-01T05:03:08;44.83;;;26.00;;
20318;SDS011;10317;47.254;11.314;2023-03-01T05:05:34;42.63;;;25.73;;
20318;SDS011;10317;47.254;11.314;2023-03-01T05:08:05;40.78;;;24.83;;
20318;SDS011;10317;47.254;11.314;2023-03-01T05:10:33;41.28;;;25.27;;
20318;SDS011;10317;47.254;11.314;2023-03-01T05:13:00;40.85;;;25.63;;
20318;SDS011;10317;47.254;11.314;2023-03-01T05:15:27;40.22;;;23.85;;
20318;SDS011;10317;47.254;11.314;2023-03-01T05:17:55;42.00;;;24.65;;
20318;SDS011;10317;47.254;11.314;2023-03-01T05:20:24;42.42;;;26.48;;
20318;SDS011;10317;47.254;11.314;2023-03-01T05:22:51;38.30;;;23.73;;
20318;SDS011;10317;47.254;11.314;2023-03-01T05:25:19;39.20;;;24.23;;
20318;SDS011;10317;47.254;11.314;2023-03-01T05:27:46;41.08;;;25.17;;
20318;SDS011;10317;47.254;11.314;2023-03-01T05:30:12;41.47;;;24.83;;
20318;SDS011;10317;47.254;11.314;2023-03-01T05:32:46;44.08;;;26.10;;
20318;SDS011;10317;47.254;11.314;2023-03-01T05:35:14;40.58;;;25.60;;
20318;SDS011;10317;47.254;11.314;2023-03-01T05:37:45;42.60;;;25.95;;
20318;SDS011;10317;47.254;11.314;2023-03-01T05:40:13;49.65;;;27.42;;
20318;SDS011;10317;47.254;11.314;2023-03-01T05:42:48;44.05;;;26.98;;
20318;SDS011;10317;47.254;11.314;2023-03-01T05:45:15;41.40;;;24.27;;
20318;SDS011;10317;47.254;11.314;2023-03-01T05:47:42;44.05;;;26.98;;
20318;SDS011;10317;47.254;11.314;2023-03-01T05:50:19;39.20;;;24.70;;
20318;SDS011;10317;47.254;11.314;2023-03-01T05:52:50;45.85;;;26.55;;
20318;SDS011;10317;47.254;11.314;2023-03-01T05:55:27;43.22;;;25.67;;
20318;SDS011;10317;47.254;11.314;2023-03-01T05:57:54;42.17;;;25.27;;
20318;SDS011;10317;47.254;11.314;2023-03-01T06:00:21;37.83;;;23.13;;
20318;SDS011;10317;47.254;11.314;2023-03-01T06:02:47;38.20;;;24.00;;
20318;SDS011;10317;47.254;11.314;2023-03-01T06:05:14;42.47;;;25.17;;
20318;SDS011;10317;47.254;11.314;2023-03-01T06:07:40;44.63;;;26.17;;
20318;SDS011;10317;47.254;11.314;2023-03-01T06:10:07;41.83;;;26.02;;
20318;SDS011;10317;47.254;11.314;2023-03-01T06:12:35;43.08;;;26.15;;
20318;SDS011;10317;47.254;11.314;2023-03-01T06:15:02;40.75;;;25.48;;
20318;SDS011;10317;47.254;11.314;2023-03-01T06:17:30;43.30;;;25.48;;
20318;SDS011;10317;47.254;11.314;2023-03-01T06:19:57;39.95;;;24.45;;
20318;SDS011;10317;47.254;11.314;2023-03-01T06:22:23;42.05;;;25.80;;
20318;SDS011;10317;47.254;11.314;2023-03-01T06:24:49;38.83;;;24.65;;
20318;SDS011;10317;47.254;11.314;2023-03-01T06:27:14;46.97;;;26.88;;
20318;SDS011;10317;47.254;11.314;2023-03-01T06:29:40;40.75;;;26.65;;
20318;SDS011;10317;47.254;11.314;2023-03-01T06:32:06;43.45;;;25.38;;
20318;SDS011;10317;47.254;11.314;2023-03-01T06:34:33;40.63;;;25.05;;
20318;SDS011;10317;47.254;11.314;2023-03-01T06:36:58;39.47;;;24.73;;
20318;SDS011;10317;47.254;11.314;2023-03-01T06:39:24;43.38;;;26.05;;
20318;SDS011;10317;47.254;11.314;2023-03-01T06:41:52;43.72;;;26.15;;
20318;SDS011;10317;47.254;11.314;2023-03-01T06:44:18;44.42;;;25.20;;
20318;SDS011;10317;47.254;11.314;2023-03-01T06:46:43;41.65;;;24.52;;
20318;SDS011;10317;47.254;11.314;2023-03-01T06:49:09;40.08;;;24.05;;
20318;SDS011;10317;47.254;11.314;2023-03-01T06:51:35;40.20;;;24.65;;
20318;SDS011;10317;47.254;11.314;2023-03-01T06:54:02;40.30;;;24.35;;
20318;SDS011;10317;47.254;11.314;2023-03-01T06:56:32;39.47;;;23.50;;
20318;SDS011;10317;47.254;11.314;2023-03-01T06:59:02;38.45;;;24.35;;
20318;SDS011;10317;47.254;11.314;2023-03-01T07:01:29;43.45;;;23.90;;
20318;SDS011;10317;47.254;11.314;2023-03-01T07:03:55;39.92;;;22.88;;
20318;SDS011;10317;47.254;11.314;2023-03-01T07:06:21;36.08;;;21.77;;
20318;SDS011;10317;47.254;11.314;2023-03-01T07:08:48;33.53;;;21.50;;
20318;SDS011;10317;47.254;11.314;2023-03-01T07:11:14;44.70;;;23.35;;
20318;SDS011;10317;47.254;11.314;2023-03-01T07:13:41;37.13;;;22.38;;
20318;SDS011;10317;47.254;11.314;2023-03-01T07:16:07;37.08;;;22.10;;
20318;SDS011;10317;47.254;11.314;2023-03-01T07:18:33;37.55;;;23.08;;
20318;SDS011;10317;47.254;11.314;2023-03-01T07:21:03;32.53;;;21.83;;
20318;SDS011;10317;47.254;11.314;2023-03-01T07:23:33;33.58;;;22.20;;
20318;SDS011;10317;47.254;11.314;2023-03-01T07:25:59;30.67;;;18.50;;
20318;SDS011;10317;47.254;11.314;2023-03-01T07:28:25;30.98;;;18.88;;
20318;SDS011;10317;47.254;11.314;2023-03-01T07:30:52;31.20;;;18.45;;
20318;SDS011;10317;47.254;11.314;2023-03-01T07:33:18;30.85;;;18.13;;
20318;SDS011;10317;47.254;11.314;2023-03-01T07:35:44;28.98;;;18.42;;
20318;SDS011;10317;47.254;11.314;2023-03-01T07:38:10;27.20;;;18.23;;
20318;SDS011;10317;47.254;11.314;2023-03-01T07:40:35;26.67;;;16.67;;
20318;SDS011;10317;47.254;11.314;2023-03-01T07:43:01;24.17;;;16.25;;
20318;SDS011;10317;47.254;11.314;2023-03-01T07:45:27;31.02;;;16.50;;
20318;SDS011;10317;47.254;11.314;2023-03-01T07:47:54;30.13;;;16.90;;
20318;SDS011;10317;47.254;11.314;2023-03-01T07:50:20;25.00;;;16.10;;
20318;SDS011;10317;47.254;11.314;2023-03-01T07:52:47;24.73;;;15.20;;
20318;SDS011;10317;47.254;11.314;2023-03-01T07:55:14;23.30;;;15.48;;
20318;SDS011;10317;47.254;11.314;2023-03-01T07:57:41;26.60;;;16.25;;
20318;SDS011;10317;47.254;11.314;2023-03-01T08:00:07;36.25;;;20.13;;
20318;SDS011;10317;47.254;11.314;2023-03-01T08:02:35;29.17;;;18.38;;
20318;SDS011;10317;47.254;11.314;2023-03-01T08:05:01;36.63;;;19.52;;
20318;SDS011;10317;47.254;11.314;2023-03-01T08:07:26;28.50;;;17.73;;
20318;SDS011;10317;47.254;11.314;2023-03-01T08:09:52;30.15;;;18.17;;
20318;SDS011;10317;47.254;11.314;2023-03-01T08:12:18;28.83;;;17.73;;
20318;SDS011;10317;47.254;11.314;2023-03-01T08:14:43;25.67;;;16.70;;
20318;SDS011;10317;47.254;11.314;2023-03-01T08:17:09;27.38;;;17.25;;
20318;SDS011;10317;47.254;11.314;2023-03-01T08:19:35;29.23;;;17.65;;
20318;SDS011;10317;47.254;11.314;2023-03-01T08:22:01;29.60;;;17.80;;
20318;SDS011;10317;47.254;11.314;2023-03-01T08:24:27;25.90;;;16.23;;
20318;SDS011;10317;47.254;11.314;2023-03-01T08:26:53;26.05;;;15.40;;
20318;SDS011;10317;47.254;11.314;2023-03-01T08:29:19;28.95;;;17.25;;
20318;SDS011;10317;47.254;11.314;2023-03-01T08:31:45;26.23;;;15.95;;
20318;SDS011;10317;47.254;11.314;2023-03-01T08:34:12;25.13;;;17.10;;
20318;SDS011;10317;47.254;11.314;2023-03-01T08:36:40;27.23;;;16.88;;
20318;SDS011;10317;47.254;11.314;2023-03-01T08:39:08;27.40;;;16.90;;
20318;SDS011;10317;47.254;11.314;2023-03-01T08:41:35;30.83;;;18.60;;
20318;SDS011;10317;47.254;11.314;2023-03-01T08:44:01;27.63;;;16.58;;
20318;SDS011;10317;47.254;11.314;2023-03-01T08:46:28;26.25;;;16.88;;
20318;SDS011;10317;47.254;11.314;2023-03-01T08:48:58;24.95;;;16.58;;
20318;SDS011;10317;47.254;11.314;2023-03-01T08:51:25;24.98;;;16.63;;
20318;SDS011;10317;47.254;11.314;2023-03-01T08:53:51;20.55;;;13.85;;
20318;SDS011;10317;47.254;11.314;2023-03-01T08:56:17;23.77;;;14.85;;
20318;SDS011;10317;47.254;11.314;2023-03-01T08:58:45;23.63;;;15.15;;
20318;SDS011;10317;47.254;11.314;2023-03-01T09:01:12;25.02;;;15.43;;
20318;SDS011;10317;47.254;11.314;2023-03-01T09:03:39;22.63;;;14.98;;
20318;SDS011;10317;47.254;11.314;2023-03-01T09:06:06;26.75;;;16.75;;
20318;SDS011;10317;47.254;11.314;2023-03-01T09:08:39;27.40;;;17.10;;
20318;SDS011;10317;47.254;11.314;2023-03-01T09:11:15;25.35;;;16.65;;
20318;SDS011;10317;47.254;11.314;2023-03-01T09:13:44;23.75;;;15.50;;
20318;SDS011;10317;47.254;11.314;2023-03-01T09:16:11;23.85;;;15.57;;
20318;SDS011;10317;47.254;11.314;2023-03-01T09:18:38;21.95;;;15.38;;
20318;SDS011;10317;47.254;11.314;2023-03-01T09:21:12;22.58;;;15.05;;
20318;SDS011;10317;47.254;11.314;2023-03-01T09:23:40;24.75;;;15.82;;
20318;SDS011;10317;47.254;11.314;2023-03-01T09:26:08;31.20;;;16.40;;
20318;SDS011;10317;47.254;11.314;2023-03-01T09:28:36;23.95;;;14.88;;
20318;SDS011;10317;47.254;11.314;2023-03-01T09:31:03;26.52;;;15.85;;
20318;SDS011;10317;47.254;11.314;2023-03-01T09:33:31;22.98;;;15.02;;
20318;SDS011;10317;47.254;11.314;2023-03-01T09:38:24;23.58;;;15.18;;
20318;SDS011;10317;47.254;11.314;2023-03-01T09:40:50;22.58;;;15.05;;
20318;SDS011;10317;47.254;11.314;2023-03-01T09:43:19;23.33;;;14.82;;
20318;SDS011;10317;47.254;11.314;2023-03-01T09:45:52;22.98;;;15.20;;
20318;SDS011;10317;47.254;11.314;2023-03-01T09:48:21;20.77;;;14.38;;
20318;SDS011;10317;47.254;11.314;2023-03-01T09:50:50;22.23;;;14.60;;
20318;SDS011;10317;47.254;11.314;2023-03-01T09:53:17;21.95;;;13.52;;
20318;SDS011;10317;47.254;11.314;2023-03-01T09:55:59;23.17;;;14.43;;
20318;SDS011;10317;47.254;11.314;2023-03-01T09:58:57;22.67;;;15.15;;
20318;SDS011;10317;47.254;11.314;2023-03-01T10:01:34;21.83;;;14.93;;
20318;SDS011;10317;47.254;11.314;2023-03-01T10:06:35;20.20;;;13.57;;
20318;SDS011;10317;47.254;11.314;2023-03-01T10:09:10;21.23;;;14.82;;
20318;SDS011;10317;47.254;11.314;2023-03-01T10:11:41;20.58;;;14.50;;
20318;SDS011;10317;47.254;11.314;2023-03-01T10:19:49;19.30;;;13.68;;
20318;SDS011;10317;47.254;11.314;2023-03-01T10:24:48;20.65;;;12.50;;
20318;SDS011;10317;47.254;11.314;2023-03-01T10:27:22;21.33;;;13.68;;
20318;SDS011;10317;47.254;11.314;2023-03-01T10:32:26;21.55;;;14.05;;
20318;SDS011;10317;47.254;11.314;2023-03-01T10:34:52;19.65;;;13.85;;
20318;SDS011;10317;47.254;11.314;2023-03-01T10:37:19;21.77;;;14.02;;
20318;SDS011;10317;47.254;11.314;2023-03-01T10:40:09;19.88;;;13.98;;
20318;SDS011;10317;47.254;11.314;2023-03-01T10:42:36;20.38;;;13.75;;
20318;SDS011;10317;47.254;11.314;2023-03-01T10:50:42;21.00;;;12.82;;
20318;SDS011;10317;47.254;11.314;2023-03-01T10:53:27;21.83;;;13.95;;
20318;SDS011;10317;47.254;11.314;2023-03-01T10:56:03;22.67;;;14.52;;
20318;SDS011;10317;47.254;11.314;2023-03-01T10:58:29;22.45;;;14.63;;
20318;SDS011;10317;47.254;11.314;2023-03-01T11:00:58;19.27;;;13.02;;
20318;SDS011;10317;47.254;11.314;2023-03-01T11:03:26;22.20;;;14.35;;
20318;SDS011;10317;47.254;11.314;2023-03-01T11:14:00;22.30;;;15.10;;
20318;SDS011;10317;47.254;11.314;2023-03-01T11:16:45;28.33;;;15.57;;
20318;SDS011;10317;47.254;11.314;2023-03-01T11:21:47;21.00;;;13.73;;
20318;SDS011;10317;47.254;11.314;2023-03-01T11:24:15;21.13;;;14.15;;
20318;SDS011;10317;47.254;11.314;2023-03-01T11:26:43;21.45;;;13.98;;
20318;SDS011;10317;47.254;11.314;2023-03-01T11:29:27;19.08;;;13.05;;
20318;SDS011;10317;47.254;11.314;2023-03-01T11:32:04;24.00;;;15.85;;
20318;SDS011;10317;47.254;11.314;2023-03-01T11:34:47;23.38;;;14.95;;
20318;SDS011;10317;47.254;11.314;2023-03-01T11:40:19;22.95;;;15.52;;
20318;SDS011;10317;47.254;11.314;2023-03-01T11:43:06;21.73;;;15.45;;
20318;SDS011;10317;47.254;11.314;2023-03-01T11:51:46;18.83;;;13.95;;
20318;SDS011;10317;47.254;11.314;2023-03-01T11:56:53;23.33;;;16.38;;
20318;SDS011;10317;47.254;11.314;2023-03-01T11:59:59;20.58;;;13.65;;
20318;SDS011;10317;47.254;11.314;2023-03-01T12:02:48;21.98;;;15.00;;
20318;SDS011;10317;47.254;11.314;2023-03-01T12:08:36;22.13;;;14.45;;
20318;SDS011;10317;47.254;11.314;2023-03-01T12:11:23;23.02;;;15.05;;
20318;SDS011;10317;47.254;11.314;2023-03-01T12:14:21;30.23;;;27.02;;
20318;SDS011;10317;47.254;11.314;2023-03-01T12:17:28;22.08;;;15.45;;
20318;SDS011;10317;47.254;11.314;2023-03-01T12:22:35;22.13;;;13.80;;
20318;SDS011;10317;47.254;11.314;2023-03-01T12:25:20;18.75;;;14.00;;
20318;SDS011;10317;47.254;11.314;2023-03-01T12:41:14;18.38;;;12.98;;
20318;SDS011;10317;47.254;11.314;2023-03-01T12:51:54;25.85;;;17.08;;
20318;SDS011;10317;47.254;11.314;2023-03-01T12:54:29;26.55;;;17.20;;
20318;SDS011;10317;47.254;11.314;2023-03-01T12:57:03;28.55;;;19.48;;
20318;SDS011;10317;47.254;11.314;2023-03-01T12:59:44;28.48;;;18.23;;
20318;SDS011;10317;47.254;11.314;2023-03-01T13:10:54;31.02;;;18.05;;
20318;SDS011;10317;47.254;11.314;2023-03-01T13:13:26;24.05;;;15.63;;
20318;SDS011;10317;47.254;11.314;2023-03-01T13:15:53;32.53;;;16.88;;
20318;SDS011;10317;47.254;11.314;2023-03-01T13:20:47;32.90;;;18.92;;
20318;SDS011;10317;47.254;11.314;2023-03-01T13:26:01;26.80;;;17.67;;
20318;SDS011;10317;47.254;11.314;2023-03-01T13:30:59;26.77;;;18.15;;
20318;SDS011;10317;47.254;11.314;2023-03-01T13:35:52;28.42;;;18.75;;
20318;SDS011;10317;47.254;11.314;2023-03-01T13:41:11;32.70;;;20.35;;
20318;SDS011;10317;47.254;11.314;2023-03-01T13:43:40;28.67;;;18.63;;
20318;SDS011;10317;47.254;11.314;2023-03-01T13:46:08;30.63;;;20.90;;
20318;SDS011;10317;47.254;11.314;2023-03-01T13:48:40;29.30;;;20.15;;
20318;SDS011;10317;47.254;11.314;2023-03-01T13:51:09;29.08;;;18.75;;
20318;SDS011;10317;47.254;11.314;2023-03-01T13:53:39;29.20;;;17.40;;
20318;SDS011;10317;47.254;11.314;2023-03-01T13:56:09;28.10;;;19.60;;
20318;SDS011;10317;47.254;11.314;2023-03-01T13:58:53;28.65;;;19.73;;
20318;SDS011;10317;47.254;11.314;2023-03-01T14:01:31;23.00;;;15.70;;
20318;SDS011;10317;47.254;11.314;2023-03-01T14:03:58;27.83;;;18.30;;
20318;SDS011;10317;47.254;11.314;2023-03-01T14:06:29;29.48;;;18.65;;
20318;SDS011;10317;47.254;11.314;2023-03-01T14:09:16;25.42;;;16.25;;
20318;SDS011;10317;47.254;11.314;2023-03-01T14:14:31;26.20;;;17.42;;
20318;SDS011;10317;47.254;11.314;2023-03-01T14:22:50;25.77;;;16.92;;
20318;SDS011;10317;47.254;11.314;2023-03-01T14:25:20;27.08;;;16.88;;
20318;SDS011;10317;47.254;11.314;2023-03-01T14:27:51;26.95;;;17.13;;
20318;SDS011;10317;47.254;11.314;2023-03-01T14:30:38;22.60;;;15.77;;
20318;SDS011;10317;47.254;11.314;2023-03-01T14:33:22;27.08;;;16.38;;
20318;SDS011;10317;47.254;11.314;2023-03-01T14:36:07;23.25;;;15.82;;
20318;SDS011;10317;47.254;11.314;2023-03-01T14:38:35;21.92;;;16.42;;
20318;SDS011;10317;47.254;11.314;2023-03-01T14:41:10;26.55;;;17.17;;
20318;SDS011;10317;47.254;11.314;2023-03-01T14:43:45;24.95;;;16.42;;
20318;SDS011;10317;47.254;11.314;2023-03-01T14:46:24;25.13;;;15.80;;
20318;SDS011;10317;47.254;11.314;2023-03-01T14:49:04;22.00;;;14.35;;
20318;SDS011;10317;47.254;11.314;2023-03-01T14:51:41;21.70;;;13.85;;
20318;SDS011;10317;47.254;11.314;2023-03-01T14:54:27;21.50;;;12.45;;
20318;SDS011;10317;47.254;11.314;2023-03-01T14:57:02;22.27;;;14.35;;
20318;SDS011;10317;47.254;11.314;2023-03-01T14:59:28;21.23;;;14.25;;
20318;SDS011;10317;47.254;11.314;2023-03-01T15:01:55;19.02;;;13.55;;
20318;SDS011;10317;47.254;11.314;2023-03-01T15:04:23;19.85;;;13.68;;
20318;SDS011;10317;47.254;11.314;2023-03-01T15:06:54;19.33;;;12.63;;
20318;SDS011;10317;47.254;11.314;2023-03-01T15:09:21;19.80;;;13.30;;
20318;SDS011;10317;47.254;11.314;2023-03-01T15:11:47;20.85;;;12.75;;
20318;SDS011;10317;47.254;11.314;2023-03-01T15:14:38;22.60;;;14.00;;
20318;SDS011;10317;47.254;11.314;2023-03-01T15:17:19;24.25;;;16.50;;
20318;SDS011;10317;47.254;11.314;2023-03-01T15:19:54;20.85;;;13.85;;
20318;SDS011;10317;47.254;11.314;2023-03-01T15:22:19;22.83;;;15.40;;
20318;SDS011;10317;47.254;11.314;2023-03-01T15:24:50;25.63;;;14.15;;
20318;SDS011;10317;47.254;11.314;2023-03-01T15:27:17;18.15;;;13.27;;
20318;SDS011;10317;47.254;11.314;2023-03-01T15:32:28;15.93;;;11.70;;
20318;SDS011;10317;47.254;11.314;2023-03-01T15:34:59;21.75;;;11.80;;
20318;SDS011;10317;47.254;11.314;2023-03-01T15:37:37;16.25;;;11.05;;
20318;SDS011;10317;47.254;11.314;2023-03-01T15:40:24;13.45;;;9.75;;
20318;SDS011;10317;47.254;11.314;2023-03-01T15:43:01;10.75;;;8.32;;
20318;SDS011;10317;47.254;11.314;2023-03-01T15:45:31;18.23;;;10.63;;
20318;SDS011;10317;47.254;11.314;2023-03-01T15:48:04;17.88;;;10.98;;
20318;SDS011;10317;47.254;11.314;2023-03-01T15:50:40;15.05;;;10.80;;
20318;SDS011;10317;47.254;11.314;2023-03-01T15:53:10;14.05;;;10.05;;
20318;SDS011;10317;47.254;11.314;2023-03-01T15:55:39;16.25;;;10.90;;
20318;SDS011;10317;47.254;11.314;2023-03-01T15:58:06;18.77;;;10.45;;
20318;SDS011;10317;47.254;11.314;2023-03-01T16:00:37;13.88;;;8.85;;
20318;SDS011;10317;47.254;11.314;2023-03-01T16:03:04;11.80;;;8.15;;
20318;SDS011;10317;47.254;11.314;2023-03-01T16:05:31;13.38;;;8.77;;
20318;SDS011;10317;47.254;11.314;2023-03-01T16:08:01;12.93;;;9.07;;
20318;SDS011;10317;47.254;11.314;2023-03-01T16:10:28;14.30;;;8.73;;
20318;SDS011;10317;47.254;11.314;2023-03-01T16:12:55;13.73;;;9.18;;
20318;SDS011;10317;47.254;11.314;2023-03-01T16:17:47;15.60;;;9.82;;
20318;SDS011;10317;47.254;11.314;2023-03-01T16:20:13;12.23;;;9.35;;